Time;durP1;ratioP1;P1;durP2;ratioP2;P2;SDS_P1;SDS_P2;PMS_P1;PMS_P2;Temp;Humidity;BMP_temperature;BMP_pressure;BME280_temperature;BME280_humidity;BME280_pressure;Samples;Min_cycle;Max_cycle;Signal;HPM_P1;HPM_P2
2021/10/24 00:02:21;;;;;;;19.27;11.13;;;7.80;93.50;;;;;;5052446;28;20469;-72
2021/10/24 00:04:47;;;;;;;17.55;10.95;;;7.90;93.50;;;;;;5052345;28;20025;-73
2021/10/24 00:07:13;;;;;;;24.77;13.10;;;7.80;93.50;;;;;;5052105;28;20056;-73
2021/10/24 00:09:39;;;;;;;15.82;9.05;;;7.80;93.40;;;;;;5051690;28;20381;-73
2021/10/24 00:12:05;;;;;;;17.27;9.88;;;7.80;93.40;;;;;;5033908;28;20032;-73
2021/10/24 00:14:30;;;;;;;19.27;12.23;;;7.80;93.50;;;;;;5051885;28;20485;-73
2021/10/24 00:16:56;;;;;;;17.27;9.20;;;7.80;93.60;;;;;;5051442;28;20025;-73
2021/10/24 00:19:22;;;;;;;17.80;9.35;;;7.90;93.50;;;;;;5052388;28;20029;-73
2021/10/24 00:21:48;;;;;;;22.85;11.80;;;7.90;93.50;;;;;;5055775;28;20091;-72
2021/10/24 00:24:13;;;;;;;22.67;11.27;;;7.90;94.00;;;;;;5055641;28;20446;-72
2021/10/24 00:26:39;;;;;;;20.45;10.18;;;8.00;93.70;;;;;;5055499;28;20031;-72
2021/10/24 00:29:05;;;;;;;17.83;10.88;;;7.90;93.70;;;;;;5055831;28;20029;-72
2021/10/24 00:31:30;;;;;;;16.08;9.77;;;7.90;93.70;;;;;;5055789;28;20108;-72
2021/10/24 00:33:57;;;;;;;14.85;9.60;;;7.90;93.60;;;;;;5055169;28;20029;-73
2021/10/24 00:36:23;;;;;;;23.92;12.32;;;7.90;93.60;;;;;;5055184;28;20382;-72
2021/10/24 00:38:49;;;;;;;15.85;9.68;;;7.90;93.80;;;;;;5037627;28;20017;-72
2021/10/24 00:41:15;;;;;;;23.08;13.35;;;7.80;93.50;;;;;;5055136;28;20044;-72
2021/10/24 00:43:41;;;;;;;26.77;13.27;;;7.90;93.40;;;;;;5055367;28;20087;-72
2021/10/24 00:46:07;;;;;;;15.05;9.10;;;7.90;93.30;;;;;;5054999;28;20481;-73
2021/10/24 00:48:32;;;;;;;11.30;6.80;;;7.90;93.30;;;;;;5055239;28;20052;-73
2021/10/24 00:50:58;;;;;;;22.58;12.77;;;7.90;93.60;;;;;;5037022;28;20108;-71
2021/10/24 00:53:25;;;;;;;17.17;10.32;;;7.80;93.60;;;;;;5055099;28;20029;-72
2021/10/24 00:55:50;;;;;;;23.70;12.38;;;7.80;93.50;;;;;;5055195;28;20098;-73
2021/10/24 00:58:17;;;;;;;23.00;12.75;;;7.80;93.40;;;;;;5054717;28;20535;-71
2021/10/24 01:00:43;;;;;;;20.90;12.07;;;7.80;93.30;;;;;;5037044;28;20029;-72
2021/10/24 01:03:09;;;;;;;18.70;12.07;;;7.80;93.30;;;;;;5054833;28;20453;-71
2021/10/24 01:05:36;;;;;;;20.30;12.05;;;7.80;93.30;;;;;;5054921;28;20036;-72
2021/10/24 01:08:03;;;;;;;21.08;13.50;;;7.80;93.30;;;;;;5054413;28;20380;-73
2021/10/24 01:10:28;;;;;;;19.80;11.23;;;7.70;93.30;;;;;;5054638;28;20488;-72
2021/10/24 01:12:54;;;;;;;19.38;11.55;;;7.70;93.30;;;;;;5054721;28;20025;-72
2021/10/24 01:15:22;;;;;;;22.48;13.32;;;7.70;93.30;;;;;;5036573;28;20028;-72
2021/10/24 01:17:48;;;;;;;22.52;13.82;;;7.60;93.30;;;;;;5036776;28;20028;-72
2021/10/24 01:20:21;;;;;;;20.65;12.70;;;7.60;93.50;;;;;;5054430;28;20039;-72
2021/10/24 01:22:48;;;;;;;17.27;9.68;;;7.60;93.60;;;;;;5054607;28;20028;-73
2021/10/24 01:25:14;;;;;;;19.33;10.95;;;7.60;93.60;;;;;;5054076;28;20025;-73
2021/10/24 01:27:40;;;;;;;21.17;12.38;;;7.60;93.60;;;;;;5055175;28;20036;-72
2021/10/24 01:30:07;;;;;;;18.27;12.05;;;7.60;93.60;;;;;;5055027;28;20032;-73
2021/10/24 01:32:33;;;;;;;21.73;12.82;;;7.60;93.60;;;;;;5054340;28;20040;-72
2021/10/24 01:34:59;;;;;;;16.27;11.52;;;7.60;93.60;;;;;;5054376;28;20032;-72
2021/10/24 01:37:40;;;;;;;21.90;13.25;;;7.60;93.60;;;;;;5054346;28;20083;-72
2021/10/24 01:40:17;;;;;;;19.45;12.27;;;7.60;93.70;;;;;;5054057;28;20039;-73
2021/10/24 01:42:48;;;;;;;20.63;12.05;;;7.60;93.60;;;;;;5054354;28;20024;-72
2021/10/24 01:45:14;;;;;;;17.38;11.65;;;7.60;93.70;;;;;;5054295;28;20438;-72
2021/10/24 01:47:40;;;;;;;25.48;13.10;;;7.60;93.80;;;;;;5053819;28;20434;-72
2021/10/24 01:50:06;;;;;;;21.98;12.63;;;7.60;93.70;;;;;;5054106;28;20116;-72
2021/10/24 01:52:31;;;;;;;20.17;12.45;;;7.50;93.60;;;;;;5054025;28;20029;-72
2021/10/24 01:54:57;;;;;;;20.20;12.35;;;7.50;93.60;;;;;;5053681;28;20113;-72
2021/10/24 01:57:22;;;;;;;21.75;13.90;;;7.50;93.60;;;;;;5035918;28;20144;-72
2021/10/24 01:59:48;;;;;;;23.40;14.25;;;7.50;93.60;;;;;;5053454;28;20112;-73
2021/10/24 02:02:14;;;;;;;21.60;14.05;;;7.40;93.60;;;;;;5053795;28;20021;-72
2021/10/24 02:04:39;;;;;;;22.23;14.40;;;7.40;93.60;;;;;;5054165;28;20032;-72
2021/10/24 02:07:05;;;;;;;14.23;9.02;;;7.40;93.60;;;;;;5036725;28;20025;-72
2021/10/24 02:09:30;;;;;;;18.52;11.23;;;7.40;93.70;;;;;;5055610;28;20470;-73
2021/10/24 02:11:56;;;;;;;21.73;13.43;;;7.40;93.80;;;;;;5054214;28;20027;-72
2021/10/24 02:14:22;;;;;;;14.63;10.30;;;7.40;93.90;;;;;;5053800;28;20029;-72
2021/10/24 02:16:47;;;;;;;20.63;12.07;;;7.30;93.90;;;;;;5054206;28;20024;-72
2021/10/24 02:19:13;;;;;;;19.42;12.90;;;7.40;93.90;;;;;;5035312;28;20088;-73
2021/10/24 02:21:39;;;;;;;25.95;13.35;;;7.30;93.90;;;;;;5053304;28;20029;-72
2021/10/24 02:24:04;;;;;;;21.65;14.00;;;7.40;93.80;;;;;;5053042;28;20040;-73
2021/10/24 02:26:30;;;;;;;26.13;15.13;;;7.30;93.80;;;;;;5053431;28;20091;-72
2021/10/24 02:28:55;;;;;;;28.88;14.18;;;7.30;93.70;;;;;;5053422;28;20029;-73
2021/10/24 02:31:21;;;;;;;25.65;13.80;;;7.30;93.70;;;;;;5052838;28;20739;-71
2021/10/24 02:33:47;;;;;;;21.25;14.27;;;7.20;93.70;;;;;;5053246;28;20025;-72
2021/10/24 02:36:12;;;;;;;27.27;15.15;;;7.20;93.70;;;;;;5035049;28;20057;-72
2021/10/24 02:38:38;;;;;;;23.00;13.55;;;7.20;93.80;;;;;;5035269;28;20036;-72
2021/10/24 02:41:03;;;;;;;18.98;12.70;;;7.10;93.80;;;;;;5034816;28;20041;-73
2021/10/24 02:43:29;;;;;;;23.95;15.13;;;7.10;93.80;;;;;;5052515;28;20032;-73
2021/10/24 02:45:55;;;;;;;24.92;14.25;;;7.10;93.80;;;;;;5052993;28;20017;-73
2021/10/24 02:48:20;;;;;;;23.17;14.13;;;7.00;93.80;;;;;;5052471;28;20032;-73
2021/10/24 02:50:46;;;;;;;27.38;16.38;;;7.00;93.90;;;;;;5052923;28;20052;-72
2021/10/24 02:53:11;;;;;;;24.67;15.35;;;7.00;93.90;;;;;;5052391;28;20029;-72
2021/10/24 02:55:37;;;;;;;25.20;15.00;;;7.00;93.90;;;;;;5052992;28;20025;-73
2021/10/24 02:58:02;;;;;;;27.60;16.83;;;6.90;93.90;;;;;;5052467;28;20112;-73
2021/10/24 03:00:28;;;;;;;27.77;16.73;;;6.90;94.20;;;;;;5052319;28;20029;-73
2021/10/24 03:02:54;;;;;;;29.15;17.05;;;6.90;94.00;;;;;;5052805;28;20079;-73
2021/10/24 03:05:20;;;;;;;30.85;17.25;;;6.80;94.00;;;;;;5052739;28;20377;-72
2021/10/24 03:07:45;;;;;;;22.58;15.18;;;6.80;94.10;;;;;;5052574;28;20025;-72
2021/10/24 03:10:12;;;;;;;24.90;16.73;;;6.80;94.10;;;;;;5034401;28;20111;-72
2021/10/24 03:12:38;;;;;;;26.90;16.02;;;6.80;94.20;;;;;;5034734;28;20021;-72
2021/10/24 03:15:04;;;;;;;28.52;16.92;;;6.70;94.10;;;;;;5052516;28;20079;-72
2021/10/24 03:17:30;;;;;;;26.73;15.95;;;6.70;94.10;;;;;;5052409;28;20028;-72
2021/10/24 03:19:56;;;;;;;23.38;14.35;;;6.60;94.20;;;;;;5052658;28;20033;-72
2021/10/24 03:22:21;;;;;;;24.80;14.98;;;6.70;94.30;;;;;;5034641;28;20028;-72
2021/10/24 03:24:47;;;;;;;23.20;15.60;;;6.60;94.30;;;;;;5053012;28;20107;-72
2021/10/24 03:27:13;;;;;;;26.48;15.73;;;6.60;94.60;;;;;;5052199;28;20037;-73
2021/10/24 03:29:38;;;;;;;28.08;15.88;;;6.60;94.30;;;;;;5034351;28;20025;-73
2021/10/24 03:32:04;;;;;;;28.00;15.00;;;6.60;94.40;;;;;;5052271;28;20021;-73
2021/10/24 03:34:30;;;;;;;24.55;15.40;;;6.60;94.40;;;;;;5051907;28;20025;-73
2021/10/24 03:36:55;;;;;;;27.40;16.27;;;6.60;94.70;;;;;;5034238;28;20484;-73
2021/10/24 03:39:21;;;;;;;22.85;13.68;;;6.60;94.40;;;;;;5051915;28;20040;-73
2021/10/24 03:41:46;;;;;;;26.63;15.52;;;6.60;94.40;;;;;;5052103;28;20466;-73
2021/10/24 03:44:12;;;;;;;19.00;13.00;;;6.50;94.50;;;;;;5034097;28;20021;-73
2021/10/24 03:46:38;;;;;;;27.98;15.75;;;6.50;94.40;;;;;;5051898;28;20029;-73
2021/10/24 03:49:04;;;;;;;24.83;16.05;;;6.50;94.40;;;;;;5034339;28;20047;-73
2021/10/24 03:51:29;;;;;;;28.55;17.05;;;6.50;94.40;;;;;;5051923;28;20496;-73
2021/10/24 03:53:55;;;;;;;31.13;16.20;;;6.50;94.50;;;;;;5052124;28;20101;-73
2021/10/24 03:56:20;;;;;;;25.98;15.93;;;6.50;94.50;;;;;;5038050;28;20461;-73
2021/10/24 03:58:46;;;;;;;27.13;15.52;;;6.50;94.50;;;;;;5038007;28;20029;-73
2021/10/24 04:01:12;;;;;;;24.65;14.60;;;6.40;94.50;;;;;;5055909;28;20045;-73
2021/10/24 04:03:37;;;;;;;24.92;13.00;;;6.40;94.50;;;;;;5056139;28;20032;-73
2021/10/24 04:06:04;;;;;;;23.52;14.65;;;6.40;94.50;;;;;;5038073;28;20029;-73
2021/10/24 04:08:30;;;;;;;20.70;13.40;;;6.40;94.50;;;;;;5037811;28;20021;-73
2021/10/24 04:10:56;;;;;;;27.35;14.60;;;6.40;94.60;;;;;;5055979;28;20094;-73
2021/10/24 04:13:21;;;;;;;20.48;12.98;;;6.40;94.70;;;;;;5055493;28;20032;-73
2021/10/24 04:15:47;;;;;;;23.08;12.95;;;6.50;94.70;;;;;;5055870;28;20025;-73
2021/10/24 04:18:13;;;;;;;21.35;12.75;;;6.40;94.60;;;;;;5055374;28;20029;-73
2021/10/24 04:20:39;;;;;;;22.60;13.52;;;6.40;94.60;;;;;;5055665;28;20492;-73
2021/10/24 04:23:05;;;;;;;22.45;13.77;;;6.40;94.70;;;;;;5037666;28;20488;-73
2021/10/24 04:25:30;;;;;;;24.63;13.85;;;6.40;94.70;;;;;;5055654;28;20032;-73
2021/10/24 04:27:56;;;;;;;24.30;13.55;;;6.40;94.80;;;;;;5037709;28;20021;-73
2021/10/24 04:30:22;;;;;;;23.25;15.23;;;6.50;94.90;;;;;;5037429;28;20057;-73
2021/10/24 04:32:48;;;;;;;20.88;13.93;;;6.50;94.80;;;;;;5055337;28;20020;-73
2021/10/24 04:35:15;;;;;;;18.58;12.10;;;6.50;95.00;;;;;;5055270;28;20120;-73
2021/10/24 04:37:42;;;;;;;21.63;13.27;;;6.50;94.90;;;;;;5055540;28;20044;-72
2021/10/24 04:40:08;;;;;;;26.30;14.77;;;6.50;94.90;;;;;;5055569;28;20029;-73
2021/10/24 04:42:35;;;;;;;22.90;12.23;;;6.50;94.80;;;;;;5037179;28;20128;-73
2021/10/24 04:45:02;;;;;;;24.25;13.15;;;6.60;94.80;;;;;;5055296;28;20055;-73
2021/10/24 04:47:28;;;;;;;17.48;11.00;;;6.60;94.70;;;;;;5055217;28;20025;-72
2021/10/24 04:49:53;;;;;;;24.58;11.63;;;6.50;94.60;;;;;;5037465;28;20112;-72
2021/10/24 04:52:19;;;;;;;22.33;12.18;;;6.60;94.70;;;;;;5055113;28;20453;-73
2021/10/24 04:54:44;;;;;;;22.85;11.93;;;6.50;94.60;;;;;;5037566;28;20022;-73
2021/10/24 04:57:10;;;;;;;18.98;12.82;;;6.50;94.60;;;;;;5055317;28;20461;-73
2021/10/24 04:59:39;;;;;;;20.42;12.82;;;6.50;94.60;;;;;;5036894;28;20021;-73
2021/10/24 05:02:04;;;;;;;22.58;12.90;;;6.50;94.50;;;;;;5055051;28;20032;-73
2021/10/24 05:04:30;;;;;;;24.85;13.38;;;6.50;94.40;;;;;;5054760;28;20025;-73
2021/10/24 05:06:55;;;;;;;21.38;12.35;;;6.50;94.50;;;;;;5054585;28;20021;-72
2021/10/24 05:09:21;;;;;;;13.57;8.40;;;6.40;94.40;;;;;;5054629;28;20060;-72
2021/10/24 05:11:47;;;;;;;18.75;10.98;;;6.40;94.50;;;;;;5055009;28;20021;-73
2021/10/24 05:14:12;;;;;;;17.63;11.75;;;6.40;94.60;;;;;;5055257;28;20457;-73
2021/10/24 05:16:38;;;;;;;17.42;11.13;;;6.40;94.70;;;;;;5037533;28;20075;-73
2021/10/24 05:19:04;;;;;;;19.27;11.23;;;6.40;94.60;;;;;;5054376;28;20100;-73
2021/10/24 05:21:31;;;;;;;20.00;11.73;;;6.40;94.60;;;;;;5054232;28;20040;-73
2021/10/24 05:23:57;;;;;;;17.85;10.57;;;6.40;94.70;;;;;;5054588;28;20033;-74
2021/10/24 05:26:23;;;;;;;17.50;9.43;;;6.50;94.70;;;;;;5036509;28;20025;-73
2021/10/24 05:28:48;;;;;;;21.98;11.43;;;6.50;94.70;;;;;;5036272;28;20027;-72
2021/10/24 05:31:14;;;;;;;13.90;9.63;;;6.50;94.80;;;;;;5036280;28;20484;-72
2021/10/24 05:33:40;;;;;;;23.65;12.57;;;6.50;94.60;;;;;;5054462;28;20043;-73
2021/10/24 05:36:05;;;;;;;17.50;10.00;;;6.50;94.30;;;;;;5054385;28;20021;-73
2021/10/24 05:38:31;;;;;;;20.80;13.20;;;6.50;94.30;;;;;;5054111;28;20096;-73
2021/10/24 05:40:57;;;;;;;20.52;12.00;;;6.40;94.20;;;;;;5054561;28;20029;-72
2021/10/24 05:43:22;;;;;;;20.08;13.07;;;6.40;94.20;;;;;;5054272;28;20382;-74
2021/10/24 05:45:48;;;;;;;22.65;13.00;;;6.40;94.20;;;;;;5036381;28;20116;-73
2021/10/24 05:48:14;;;;;;;21.63;13.02;;;6.30;94.20;;;;;;5054124;28;20096;-71
2021/10/24 05:50:41;;;;;;;21.77;14.70;;;6.30;94.10;;;;;;5054173;28;20029;-72
2021/10/24 05:53:06;;;;;;;25.02;14.52;;;6.20;94.20;;;;;;5036062;28;20017;-73
2021/10/24 05:55:36;;;;;;;24.83;13.63;;;6.10;94.30;;;;;;5035699;28;20113;-73
2021/10/24 05:58:02;;;;;;;24.10;14.23;;;6.10;94.30;;;;;;5053969;28;20032;-72
2021/10/24 06:00:29;;;;;;;25.27;15.65;;;6.10;94.30;;;;;;5053689;28;20295;-72
2021/10/24 06:02:54;;;;;;;28.33;15.02;;;6.00;94.30;;;;;;5053803;28;20469;-73
2021/10/24 06:05:20;;;;;;;25.70;14.45;;;6.00;94.40;;;;;;5053590;28;20040;-73
2021/10/24 06:07:46;;;;;;;31.60;15.23;;;5.90;94.40;;;;;;5035667;28;20091;-73
2021/10/24 06:10:13;;;;;;;27.85;15.55;;;5.90;94.40;;;;;;5053721;28;20028;-73
2021/10/24 06:12:51;;;;;;;27.98;16.02;;;5.90;94.50;;;;;;5053458;28;20381;-71
2021/10/24 06:15:18;;;;;;;27.17;16.30;;;5.90;94.50;;;;;;5035539;28;20533;-72
2021/10/24 06:17:47;;;;;;;33.65;16.17;;;5.80;94.60;;;;;;5052485;28;20420;-73
2021/10/24 06:20:14;;;;;;;23.25;15.35;;;5.90;94.70;;;;;;5053475;28;20025;-72
2021/10/24 06:22:40;;;;;;;28.10;16.45;;;5.80;94.60;;;;;;5053254;28;20033;-73
2021/10/24 06:25:07;;;;;;;32.83;16.48;;;5.80;94.60;;;;;;5053640;28;20040;-73
2021/10/24 06:27:37;;;;;;;28.60;16.50;;;5.80;94.60;;;;;;5053503;28;20116;-72
2021/10/24 06:30:05;;;;;;;32.17;16.97;;;5.90;94.70;;;;;;5034910;28;20478;-73
2021/10/24 06:32:31;;;;;;;32.03;16.77;;;5.80;94.80;;;;;;5053407;28;20260;-72
2021/10/24 06:34:56;;;;;;;31.67;16.85;;;5.80;94.80;;;;;;5053057;28;20032;-72
2021/10/24 06:37:22;;;;;;;29.10;18.10;;;5.80;94.80;;;;;;5035025;28;20032;-73
2021/10/24 06:39:48;;;;;;;29.80;16.90;;;5.90;94.90;;;;;;5034694;28;20051;-74
2021/10/24 06:42:13;;;;;;;28.90;15.55;;;6.10;95.20;;;;;;5052548;28;20101;-72
2021/10/24 06:44:39;;;;;;;22.27;14.75;;;6.40;94.90;;;;;;5052666;28;20112;-72
2021/10/24 06:47:05;;;;;;;25.45;13.75;;;6.60;94.60;;;;;;5053000;28;20500;-72
2021/10/24 06:49:33;;;;;;;23.65;14.00;;;7.00;94.40;;;;;;5034449;28;20028;-73
2021/10/24 06:52:04;;;;;;;19.15;11.50;;;7.40;93.70;;;;;;5053113;28;20025;-74
2021/10/24 06:54:30;;;;;;;19.13;12.77;;;7.80;92.90;;;;;;5053204;28;20021;-72
2021/10/24 06:56:56;;;;;;;17.38;11.75;;;8.30;91.90;;;;;;5053024;28;20032;-73
2021/10/24 06:59:25;;;;;;;22.00;12.63;;;;;;;;;;5053685;28;20393;-73
2021/10/24 07:01:50;;;;;;;19.10;11.05;;;9.00;89.70;;;;;;5034965;28;20465;-72
2021/10/24 07:04:16;;;;;;;17.02;11.07;;;9.40;88.40;;;;;;5054148;28;20075;-71
2021/10/24 07:06:41;;;;;;;16.98;10.38;;;9.60;86.60;;;;;;5053653;28;20067;-73
2021/10/24 07:09:07;;;;;;;17.88;10.70;;;10.10;84.90;;;;;;5035572;28;20025;-73
2021/10/24 07:11:33;;;;;;;20.58;11.63;;;10.40;84.10;;;;;;5034501;28;20113;-71
2021/10/24 07:13:58;;;;;;;18.67;10.77;;;10.70;81.90;;;;;;5052610;28;20369;-72
2021/10/24 07:16:24;;;;;;;17.00;11.75;;;11.00;80.60;;;;;;5052389;28;20029;-73
2021/10/24 07:18:51;;;;;;;14.60;9.80;;;11.30;78.90;;;;;;5052575;28;20028;-73
2021/10/24 07:21:17;;;;;;;15.55;10.55;;;11.60;76.90;;;;;;5052264;28;20536;-73
2021/10/24 07:23:42;;;;;;;18.30;9.68;;;11.90;76.00;;;;;;5034186;28;20164;-73
2021/10/24 07:26:08;;;;;;;20.63;11.07;;;12.20;75.40;;;;;;5034411;28;20025;-74
2021/10/24 07:28:34;;;;;;;17.92;11.02;;;12.30;74.40;;;;;;5033636;28;20406;-72
2021/10/24 07:31:00;;;;;;;15.80;8.55;;;12.60;73.00;;;;;;5052389;28;20036;-72
2021/10/24 07:33:25;;;;;;;16.45;10.30;;;12.90;72.10;;;;;;5051842;28;20032;-73
2021/10/24 07:35:51;;;;;;;15.30;10.13;;;13.10;71.20;;;;;;5052823;28;20017;-74
2021/10/24 07:38:17;;;;;;;18.10;10.20;;;13.30;70.00;;;;;;5034589;28;20116;-72
2021/10/24 07:40:46;;;;;;;15.52;9.50;;;13.60;68.80;;;;;;5052075;28;20096;-72
2021/10/24 07:43:13;;;;;;;14.90;9.40;;;13.90;67.60;;;;;;5052102;28;20113;-72
2021/10/24 07:45:38;;;;;;;17.30;10.73;;;14.10;67.00;;;;;;5033728;28;20028;-73
2021/10/24 07:48:05;;;;;;;16.35;10.02;;;14.10;65.90;;;;;;5034054;28;20469;-72
2021/10/24 07:50:31;;;;;;;14.65;9.73;;;14.00;65.90;;;;;;5051738;28;20029;-73
2021/10/24 07:53:00;;;;;;;16.67;9.98;;;14.10;66.50;;;;;;5033609;28;20025;-73
2021/10/24 07:55:26;;;;;;;17.15;8.70;;;14.40;66.10;;;;;;5051609;28;20029;-71
2021/10/24 07:57:51;;;;;;;11.07;7.53;;;14.50;66.70;;;;;;5051816;28;20040;-71
2021/10/24 08:00:17;;;;;;;16.73;7.13;;;14.90;67.60;;;;;;5051920;28;20041;-71
2021/10/24 08:02:43;;;;;;;11.05;7.30;;;15.30;67.40;;;;;;5051679;28;20572;-71
2021/10/24 08:05:08;;;;;;;9.45;6.10;;;15.70;68.00;;;;;;5051990;28;20083;-72
2021/10/24 08:07:39;;;;;;;12.95;6.65;;;16.30;69.60;;;;;;5051744;28;20427;-72
2021/10/24 08:10:08;;;;;;;11.27;5.90;;;16.90;69.20;;;;;;5051846;28;20479;-72
2021/10/24 08:12:35;;;;;;;12.60;6.30;;;17.10;67.30;;;;;;5051634;28;20029;-72
2021/10/24 08:15:01;;;;;;;12.02;5.80;;;17.20;68.10;;;;;;5052022;28;20029;-72
2021/10/24 08:17:27;;;;;;;10.50;6.13;;;17.40;68.60;;;;;;5051659;28;20021;-72
2021/10/24 08:19:52;;;;;;;10.63;4.95;;;17.70;68.20;;;;;;5051411;28;20087;-73
2021/10/24 08:22:19;;;;;;;9.25;6.18;;;17.90;67.40;;;;;;5051428;28;20022;-72
2021/10/24 08:24:47;;;;;;;9.15;5.35;;;18.00;67.20;;;;;;5051710;28;20031;-71
2021/10/24 08:27:13;;;;;;;7.97;5.32;;;18.20;67.00;;;;;;5051522;28;20021;-72
2021/10/24 08:29:40;;;;;;;9.70;5.47;;;18.40;67.00;;;;;;5051515;28;20032;-72
2021/10/24 08:32:09;;;;;;;8.80;5.75;;;18.50;67.10;;;;;;5051384;28;20108;-72
2021/10/24 08:34:37;;;;;;;10.93;5.50;;;18.70;66.70;;;;;;5051490;28;20048;-71
2021/10/24 08:37:03;;;;;;;8.93;5.57;;;18.60;66.30;;;;;;5051646;28;20120;-72
2021/10/24 08:39:30;;;;;;;9.60;5.47;;;18.70;67.00;;;;;;5051811;28;20032;-72
2021/10/24 08:41:56;;;;;;;9.98;5.68;;;18.90;67.20;;;;;;5054794;28;20021;-71
2021/10/24 08:44:24;;;;;;;10.07;4.82;;;18.90;67.30;;;;;;5055631;28;20040;-71
2021/10/24 08:46:51;;;;;;;9.18;5.45;;;19.00;67.30;;;;;;5055485;28;20108;-71
2021/10/24 08:49:16;;;;;;;8.77;5.40;;;18.80;67.50;;;;;;5055213;28;20032;-71
2021/10/24 08:51:42;;;;;;;11.05;4.78;;;18.40;69.80;;;;;;5055615;28;20028;-71
2021/10/24 08:54:08;;;;;;;8.70;4.28;;;18.10;71.80;;;;;;5056222;28;20025;-71
2021/10/24 08:56:34;;;;;;;10.73;5.80;;;17.90;72.80;;;;;;5056366;28;20021;-70
2021/10/24 08:59:00;;;;;;;14.05;5.38;;;17.70;73.80;;;;;;5055120;28;20028;-72
2021/10/24 09:01:27;;;;;;;11.20;4.60;;;17.80;73.70;;;;;;5054767;28;20541;-71
2021/10/24 09:04:08;;;;;;;7.55;4.28;;;17.70;74.50;;;;;;5037099;28;20527;-71
2021/10/24 09:06:59;;;;;;;7.00;3.63;;;17.70;75.70;;;;;;5054726;28;20418;-74
2021/10/24 09:09:30;;;;;;;9.63;5.57;;;18.00;74.60;;;;;;5054878;28;20035;-72
2021/10/24 09:12:02;;;;;;;14.57;7.00;;;17.60;73.80;;;;;;5055204;28;20025;-72
2021/10/24 09:14:42;;;;;;;12.57;7.57;;;16.90;72.40;;;;;;5036753;28;20032;-72
2021/10/24 09:17:16;;;;;;;15.48;8.15;;;16.50;66.90;;;;;;5054818;28;20027;-73
2021/10/24 09:19:44;;;;;;;12.20;6.88;;;16.10;70.80;;;;;;5054721;28;20100;-73
2021/10/24 09:22:19;;;;;;;10.63;6.85;;;15.70;73.20;;;;;;5039691;28;20114;-73
2021/10/24 09:25:09;;;;;;;19.10;9.75;;;15.50;73.20;;;;;;5056054;28;20465;-73
2021/10/24 09:27:44;;;;;;;;;;;15.60;66.60;;;;;;5038975;28;20032;-73
2021/10/24 09:30:15;;;;;;;11.18;6.82;;;15.60;77.80;;;;;;5054261;28;19999;-72
2021/10/24 09:33:11;;;;;;;13.05;8.18;;;15.40;68.20;;;;;;5054238;28;20027;-73
2021/10/24 09:35:42;;;;;;;16.27;7.97;;;15.40;77.80;;;;;;5054204;28;20025;-72
2021/10/24 09:38:19;;;;;;;13.73;7.22;;;15.30;78.40;;;;;;5036454;28;20021;-71
2021/10/24 09:40:48;;;;;;;12.23;7.60;;;15.40;74.30;;;;;;5054309;28;20040;-71
2021/10/24 09:43:26;;;;;;;10.23;5.70;;;15.40;70.40;;;;;;5054440;28;20369;-72
2021/10/24 09:46:13;;;;;;;9.43;6.72;;;15.30;84.90;;;;;;5036401;28;20024;-71
2021/10/24 09:48:44;;;;;;;12.90;6.68;;;15.20;82.80;;;;;;5054101;28;20021;-72
2021/10/24 09:51:13;;;;;;;12.80;7.30;;;15.10;80.70;;;;;;5053923;28;20060;-72
2021/10/24 09:53:41;;;;;;;14.05;6.35;;;15.20;77.20;;;;;;5052799;28;20023;-73
2021/10/24 09:56:18;;;;;;;13.27;7.90;;;15.40;79.30;;;;;;5054141;28;20021;-73
2021/10/24 09:58:49;;;;;;;11.73;5.97;;;15.30;69.10;;;;;;5053462;28;20056;-72
2021/10/24 10:01:17;;;;;;;6.72;4.22;;;15.30;74.30;;;;;;5053791;28;20536;-72
2021/10/24 10:03:48;;;;;;;14.85;8.38;;;15.40;86.90;;;;;;5035651;28;20123;-72
2021/10/24 10:06:18;;;;;;;12.20;6.95;;;15.50;77.20;;;;;;5053891;28;20017;-72
2021/10/24 10:08:44;;;;;;;14.15;6.85;;;15.60;72.40;;;;;;5053578;28;20116;-71
2021/10/24 10:11:10;;;;;;;12.50;6.47;;;15.70;75.00;;;;;;5053738;28;20464;-71
2021/10/24 10:13:39;;;;;;;12.32;5.97;;;15.90;72.30;;;;;;5053663;28;20099;-71
2021/10/24 10:16:08;;;;;;;12.07;7.55;;;16.10;80.60;;;;;;5053812;28;20078;-72
2021/10/24 10:18:55;;;;;;;8.73;4.53;;;15.80;68.50;;;;;;5053676;28;20021;-72
2021/10/24 10:21:30;;;;;;;14.30;7.63;;;15.70;85.00;;;;;;5055302;28;20103;-72
2021/10/24 10:23:56;;;;;;;12.20;6.55;;;15.70;76.30;;;;;;5035890;28;20032;-73
2021/10/24 10:26:33;;;;;;;11.60;7.65;;;15.60;84.10;;;;;;5053225;28;20032;-73
2021/10/24 10:29:00;;;;;;;8.63;6.00;;;15.60;71.70;;;;;;5053378;28;20053;-73
2021/10/24 10:31:26;;;;;;;11.63;5.63;;;15.60;75.20;;;;;;5035077;28;20433;-72
2021/10/24 10:33:59;;;;;;;12.05;6.38;;;15.60;78.40;;;;;;5035674;28;20159;-73
2021/10/24 10:36:44;;;;;;;14.20;7.65;;;15.80;78.30;;;;;;5053424;28;20029;-72
2021/10/24 10:39:34;;;;;;;12.30;7.38;;;15.90;71.90;;;;;;5053576;28;20021;-72
2021/10/24 10:42:04;;;;;;;;;;;15.90;67.90;;;;;;5054021;28;20033;-73
2021/10/24 10:44:32;;;;;;;9.82;5.43;;;16.00;80.20;;;;;;5055101;28;19912;-71
2021/10/24 10:46:58;;;;;;;10.57;4.93;;;16.20;85.40;;;;;;5039043;28;20475;-70
2021/10/24 10:49:25;;;;;;;10.10;4.53;;;;;;;;;;5056778;28;20017;-73
2021/10/24 10:51:52;;;;;;;11.85;6.03;;;16.50;87.60;;;;;;5053489;28;20075;-72
2021/10/24 10:54:18;;;;;;;13.50;8.10;;;16.60;70.60;;;;;;5052953;28;20017;-73
2021/10/24 10:56:52;;;;;;;10.10;5.57;;;16.50;62.30;;;;;;5052889;28;20021;-73
2021/10/24 10:59:33;;;;;;;10.23;5.25;;;16.40;75.60;;;;;;5053380;28;20474;-73
2021/10/24 11:02:19;;;;;;;11.18;5.40;;;16.40;74.50;;;;;;5052524;28;20125;-73
2021/10/24 11:04:50;;;;;;;10.30;5.65;;;16.40;82.00;;;;;;5052330;28;20056;-73
2021/10/24 11:07:34;;;;;;;10.18;6.22;;;16.60;90.50;;;;;;5052843;28;20029;-72
2021/10/24 11:10:00;;;;;;;12.90;7.28;;;16.70;74.00;;;;;;5052764;28;20075;-72
2021/10/24 11:12:43;;;;;;;7.93;4.47;;;16.80;70.50;;;;;;5033892;28;20024;-71
2021/10/24 11:15:23;;;;;;;10.85;5.20;;;16.80;82.40;;;;;;5034757;28;20397;-73
2021/10/24 11:17:49;;;;;;;9.43;5.17;;;16.80;78.70;;;;;;5034657;28;20103;-72
2021/10/24 11:20:20;;;;;;;12.18;5.65;;;16.90;76.00;;;;;;5052446;28;20382;-74
2021/10/24 11:22:52;;;;;;;12.98;7.25;;;17.00;84.70;;;;;;5034498;28;20469;-74
2021/10/24 11:25:32;;;;;;;12.15;6.53;;;17.00;63.90;;;;;;5052959;28;20025;-72
2021/10/24 11:28:02;;;;;;;;;;;17.10;80.50;;;;;;5035256;28;20021;-76
2021/10/24 11:30:28;;;;;;;10.48;6.72;;;17.10;66.80;;;;;;5034402;28;19912;-73
2021/10/24 11:32:54;;;;;;;14.10;6.15;;;17.00;72.40;;;;;;5034573;28;20017;-72
2021/10/24 11:35:22;;;;;;;8.60;4.22;;;17.00;84.50;;;;;;5052674;28;20032;-72
2021/10/24 11:37:55;;;;;;;10.43;5.60;;;17.10;82.70;;;;;;5052743;28;20037;-73
2021/10/24 11:40:29;;;;;;;8.93;5.70;;;17.20;83.40;;;;;;5051864;28;20363;-74
2021/10/24 11:42:55;;;;;;;9.82;6.35;;;17.00;73.80;;;;;;5052224;28;20071;-72
2021/10/24 11:45:22;;;;;;;7.32;4.65;;;17.00;68.10;;;;;;5052223;28;20081;-74
2021/10/24 11:48:07;;;;;;;12.68;6.35;;;17.10;77.50;;;;;;5052454;28;20524;-73
2021/10/24 11:50:44;;;;;;;14.52;7.35;;;17.30;68.30;;;;;;5034065;28;20072;-73
2021/10/24 11:53:11;;;;;;;10.57;5.47;;;17.70;71.30;;;;;;5052166;28;20028;-74
2021/10/24 11:55:38;;;;;;;7.90;3.85;;;17.90;83.30;;;;;;5052133;28;20036;-74
2021/10/24 12:01:27;;;;;;;13.68;6.20;;;17.90;90.00;;;;;;5020708;28;20037;-73
2021/10/24 12:04:05;;;;;;;7.88;4.72;;;18.00;78.80;;;;;;5051174;28;20033;-72
2021/10/24 12:06:50;;;;;;;8.68;5.07;;;18.10;92.20;;;;;;5051842;28;20017;-72
2021/10/24 12:09:50;;;;;;;10.38;4.28;;;18.00;80.20;;;;;;5052034;28;20053;-73
2021/10/24 12:12:33;;;;;;;11.38;5.07;;;18.10;78.70;;;;;;5052225;28;20123;-74
2021/10/24 12:15:02;;;;;;;10.45;5.93;;;18.10;77.90;;;;;;5052376;28;20098;-73
2021/10/24 12:17:36;;;;;;;8.38;4.20;;;18.40;82.70;;;;;;5055961;28;20028;-73
2021/10/24 12:20:25;;;;;;;10.38;5.32;;;18.50;79.80;;;;;;5055976;28;20064;-72
2021/10/24 12:22:56;;;;;;;13.13;6.20;;;18.50;68.10;;;;;;5055978;28;20021;-73
2021/10/24 12:25:42;;;;;;;9.05;3.92;;;18.70;72.30;;;;;;5056012;28;20272;-73
2021/10/24 12:28:16;;;;;;;9.90;5.65;;;18.70;78.30;;;;;;5056128;28;20052;-73
2021/10/24 12:30:53;;;;;;;6.60;3.53;;;18.70;61.60;;;;;;5056575;28;20028;-73
2021/10/24 12:33:32;;;;;;;11.40;5.50;;;18.60;90.50;;;;;;5057553;28;20025;-73
2021/10/24 12:36:00;;;;;;;13.32;5.45;;;18.70;83.70;;;;;;5043269;28;20021;-72
2021/10/24 12:38:47;;;;;;;10.65;5.85;;;18.90;85.00;;;;;;5064355;28;20025;-73
2021/10/24 12:41:14;;;;;;;8.02;4.95;;;19.00;89.20;;;;;;5058138;28;20163;-74
2021/10/24 12:43:50;;;;;;;7.07;3.08;;;19.00;90.80;;;;;;5055760;28;20022;-73
2021/10/24 12:46:29;;;;;;;9.85;5.90;;;19.00;87.70;;;;;;5055576;28;20032;-73
2021/10/24 12:48:56;;;;;;;6.72;4.15;;;19.20;74.40;;;;;;5055416;28;20032;-74
2021/10/24 12:51:28;;;;;;;8.43;4.43;;;19.30;82.00;;;;;;5055512;28;20036;-74